Time;durP1;ratioP1;P1;durP2;ratioP2;P2;SDS_P1;SDS_P2;PMS_P1;PMS_P2;Temp;Humidity;BMP_temperature;BMP_pressure;BME280_temperature;BME280_humidity;BME280_pressure;Samples;Min_cycle;Max_cycle;Signal;HPM_P1;HPM_P2
2022/09/23 00:00:10;;;;;;;;;;;15.60;75.90;;;;;;5099973;28;20353;-56
2022/09/23 00:02:36;;;;;;;;;;;15.60;77.80;;;;;;5100762;28;19908;-56
2022/09/23 00:05:02;;;;;;;;;;;15.60;75.90;;;;;;5100018;28;19920;-54
2022/09/23 00:07:28;;;;;;;;;;;15.60;78.10;;;;;;5081653;28;20042;-53
2022/09/23 00:09:55;;;;;;;;;;;15.60;75.60;;;;;;5100050;28;19942;-55
2022/09/23 00:12:21;;;;;;;;;;;15.60;78.60;;;;;;5099658;28;19915;-54
2022/09/23 00:14:46;;;;;;;;;;;15.50;80.20;;;;;;5099945;28;19909;-55
2022/09/23 00:17:12;;;;;;;;;;;15.50;76.70;;;;;;5099772;28;19920;-55
2022/09/23 00:19:39;;;;;;;;;;;15.50;76.10;;;;;;5099749;28;19909;-53
2022/09/23 00:22:05;;;;;;;;;;;15.50;76.20;;;;;;5099718;28;19908;-56
2022/09/23 00:24:31;;;;;;;;;;;15.50;75.90;;;;;;5100174;28;19908;-54
2022/09/23 00:26:58;;;;;;;;;;;15.50;75.70;;;;;;5099211;28;19909;-55
2022/09/23 00:29:23;;;;;;;;;;;15.40;75.40;;;;;;5099945;28;19912;-55
2022/09/23 00:31:49;;;;;;;;;;;15.40;78.50;;;;;;5099771;28;19915;-53
2022/09/23 00:34:15;;;;;;;;;;;15.40;76.50;;;;;;5099383;28;19908;-55
2022/09/23 00:36:41;;;;;;;;;;;15.40;76.50;;;;;;5099158;28;19908;-56
2022/09/23 00:39:07;;;;;;;;;;;15.40;80.20;;;;;;5099523;28;19961;-56
2022/09/23 00:41:34;;;;;;;;;;;15.40;78.20;;;;;;5099444;28;20406;-56
2022/09/23 00:44:00;;;;;;;;;;;15.40;80.20;;;;;;5099391;28;19912;-55
2022/09/23 00:46:31;;;;;;;;;;;15.40;77.00;;;;;;5099350;28;19908;-56
2022/09/23 00:49:09;;;;;;;;;;;15.40;77.70;;;;;;5098980;28;19912;-54
2022/09/23 00:51:42;;;;;;;;;;;15.40;77.20;;;;;;5099241;28;19915;-55
2022/09/23 00:54:08;;;;;;;;;;;15.40;77.50;;;;;;5099204;28;19912;-56
2022/09/23 00:56:34;;;;;;;;;;;15.40;79.90;;;;;;5098857;28;19913;-55
2022/09/23 00:59:00;;;;;;;;;;;15.40;77.20;;;;;;5098915;28;20010;-55
2022/09/23 01:01:25;;;;;;;;;;;15.30;77.30;;;;;;5098949;28;19984;-56
2022/09/23 01:03:53;;;;;;;;;;;15.30;77.70;;;;;;5098094;28;20010;-55
2022/09/23 01:06:19;;;;;;;;;;;15.30;78.70;;;;;;5098605;28;19913;-53
2022/09/23 01:08:45;;;;;;;;;;;15.30;80.50;;;;;;5098578;28;19918;-56
2022/09/23 01:11:26;;;;;;;;;;;15.30;80.30;;;;;;5098473;28;20443;-54
2022/09/23 01:14:04;;;;;;;;;;;15.30;80.10;;;;;;5098867;28;20394;-55
2022/09/23 01:16:39;;;;;;;;;;;15.30;77.30;;;;;;5099125;28;20364;-55
2022/09/23 01:19:13;;;;;;;;;;;15.30;77.50;;;;;;5098743;28;19908;-55
2022/09/23 01:21:51;;;;;;;;;;;15.30;77.50;;;;;;5098619;28;19908;-56
2022/09/23 01:24:29;;;;;;;;;;;15.30;79.30;;;;;;5098478;28;20371;-55
2022/09/23 01:27:00;;;;;;;;;;;15.30;77.20;;;;;;5098560;28;19909;-55
2022/09/23 01:29:44;;;;;;;;;;;15.30;77.70;;;;;;5098416;28;19999;-56
2022/09/23 01:32:30;;;;;;;;;;;15.30;76.80;;;;;;5098587;28;20286;-55
2022/09/23 01:34:55;;;;;;;;;;;15.30;77.90;;;;;;5098757;28;20365;-53
2022/09/23 01:37:21;;;;;;;;;;;15.30;77.50;;;;;;5098365;28;19908;-56
2022/09/23 01:39:51;;;;;;;;;;;15.30;77.20;;;;;;5098473;28;19975;-55
2022/09/23 01:42:23;;;;;;;;;;;15.20;77.20;;;;;;5098430;28;19908;-54
2022/09/23 01:44:52;;;;;;;;;;;15.20;78.50;;;;;;5098221;28;19908;-55
2022/09/23 01:47:23;;;;;;;;;;;15.30;77.50;;;;;;5097991;28;19919;-56
2022/09/23 01:50:00;;;;;;;;;;;15.30;76.90;;;;;;5098315;28;19908;-56
2022/09/23 01:52:37;;;;;;;;;;;15.20;77.20;;;;;;5098150;28;20244;-56
2022/09/23 01:55:12;;;;;;;;;;;15.30;79.80;;;;;;5098044;28;20007;-51
2022/09/23 01:57:47;;;;;;;;;;;15.30;80.30;;;;;;5098150;28;20384;-53
2022/09/23 02:00:14;;;;;;;;;;;15.30;77.80;;;;;;5098182;28;20362;-54
2022/09/23 02:02:58;;;;;;;;;;;15.30;77.70;;;;;;5098220;28;19943;-55
2022/09/23 02:05:27;;;;;;;;;;;15.30;77.00;;;;;;5097897;28;19986;-56
2022/09/23 02:07:53;;;;;;;;;;;15.30;77.30;;;;;;5098032;28;19912;-52
2022/09/23 02:10:24;;;;;;;;;;;15.30;79.90;;;;;;5098166;28;19916;-55
2022/09/23 02:12:52;;;;;;;;;;;15.30;81.30;;;;;;5098473;28;19979;-54
2022/09/23 02:15:20;;;;;;;;;;;15.30;78.10;;;;;;5098963;28;19916;-55
2022/09/23 02:17:49;;;;;;;;;;;15.20;78.40;;;;;;5102118;28;19915;-55
2022/09/23 02:20:19;;;;;;;;;;;15.20;77.60;;;;;;5102172;28;19908;-55
2022/09/23 02:23:00;;;;;;;;;;;15.20;77.40;;;;;;5101852;28;19908;-54
2022/09/23 02:25:46;;;;;;;;;;;15.10;77.80;;;;;;5102076;28;19915;-56
2022/09/23 02:28:15;;;;;;;;;;;15.10;77.60;;;;;;5101569;28;19916;-55
2022/09/23 02:30:47;;;;;;;;;;;15.10;78.80;;;;;;5101538;28;19915;-56
2022/09/23 02:33:19;;;;;;;;;;;15.20;81.20;;;;;;5101774;28;19908;-56
2022/09/23 02:35:44;;;;;;;;;;;15.20;77.80;;;;;;5101882;28;19954;-55
2022/09/23 02:38:29;;;;;;;;;;;15.20;80.40;;;;;;5101653;28;19912;-55
2022/09/23 02:40:57;;;;;;;;;;;15.10;78.60;;;;;;5101560;28;19915;-55
2022/09/23 02:43:31;;;;;;;;;;;15.10;77.60;;;;;;5102456;28;19954;-55
2022/09/23 02:45:57;;;;;;;;;;;15.00;79.40;;;;;;5101505;28;19908;-54
2022/09/23 02:48:28;;;;;;;;;;;15.00;77.70;;;;;;5101730;28;20016;-56
2022/09/23 02:50:54;;;;;;;;;;;15.00;78.00;;;;;;5083063;28;19908;-56
2022/09/23 02:53:21;;;;;;;;;;;14.90;77.90;;;;;;5101596;28;20362;-55
2022/09/23 02:55:48;;;;;;;;;;;14.90;78.50;;;;;;5101450;28;20336;-53
2022/09/23 02:58:13;;;;;;;;;;;14.80;81.00;;;;;;5101148;28;19920;-52
2022/09/23 03:00:45;;;;;;;;;;;14.80;79.80;;;;;;5101581;28;19908;-53
2022/09/23 03:03:10;;;;;;;;;;;14.70;82.30;;;;;;5101294;28;19908;-54
2022/09/23 03:05:40;;;;;;;;;;;14.70;79.90;;;;;;5100849;28;19931;-55
2022/09/23 03:08:12;;;;;;;;;;;14.70;81.60;;;;;;5101480;28;20007;-55
2022/09/23 03:10:41;;;;;;;;;;;14.70;80.10;;;;;;5100998;28;19915;-55
2022/09/23 03:13:11;;;;;;;;;;;14.70;82.00;;;;;;5101247;28;20248;-56
2022/09/23 03:15:42;;;;;;;;;;;14.70;84.40;;;;;;5100879;28;19908;-55
2022/09/23 03:18:08;;;;;;;;;;;14.70;80.10;;;;;;5101029;28;19969;-56
2022/09/23 03:20:34;;;;;;;;;;;14.70;79.30;;;;;;5101214;28;19908;-55
2022/09/23 03:23:01;;;;;;;;;;;14.70;79.70;;;;;;5101028;28;19911;-55
2022/09/23 03:25:30;;;;;;;;;;;14.70;79.90;;;;;;5100712;28;19908;-55
2022/09/23 03:27:57;;;;;;;;;;;14.70;80.10;;;;;;5100312;28;19912;-55
2022/09/23 03:30:23;;;;;;;;;;;14.70;82.40;;;;;;5100655;28;19915;-52
2022/09/23 03:32:50;;;;;;;;;;;14.70;80.50;;;;;;5100355;28;19908;-54
2022/09/23 03:35:16;;;;;;;;;;;14.80;80.50;;;;;;5100759;28;20375;-55
2022/09/23 03:38:02;;;;;;;;;;;14.80;80.10;;;;;;5100525;28;19986;-54
2022/09/23 03:40:32;;;;;;;;;;;14.80;81.10;;;;;;5100620;28;20347;-55
2022/09/23 03:43:00;;;;;;;;;;;14.90;81.80;;;;;;5100428;28;19915;-56
2022/09/23 03:45:28;;;;;;;;;;;14.90;80.50;;;;;;5100188;28;19972;-55
2022/09/23 03:47:54;;;;;;;;;;;14.90;81.10;;;;;;5100204;28;19912;-56
2022/09/23 03:50:20;;;;;;;;;;;14.90;80.20;;;;;;5100081;28;19953;-55
2022/09/23 03:52:46;;;;;;;;;;;14.90;79.80;;;;;;5100463;28;19909;-54
2022/09/23 03:55:12;;;;;;;;;;;14.90;82.20;;;;;;5099984;28;19908;-56
2022/09/23 03:57:38;;;;;;;;;;;14.90;82.90;;;;;;5100360;28;19915;-55
2022/09/23 04:00:05;;;;;;;;;;;14.90;80.20;;;;;;5099900;28;19957;-55
2022/09/23 04:02:31;;;;;;;;;;;14.90;79.50;;;;;;5100235;28;19947;-53
2022/09/23 04:04:56;;;;;;;;;;;14.90;82.30;;;;;;5099853;28;20406;-54
2022/09/23 04:07:22;;;;;;;;;;;14.80;85.10;;;;;;5099897;28;19912;-55
2022/09/23 04:09:48;;;;;;;;;;;14.70;85.80;;;;;;5100048;28;19915;-55
2022/09/23 04:12:14;;;;;;;;;;;14.70;83.00;;;;;;5100048;28;19912;-55
2022/09/23 04:14:40;;;;;;;;;;;14.80;81.10;;;;;;5099853;28;19908;-53
2022/09/23 04:17:06;;;;;;;;;;;14.80;81.00;;;;;;5093511;28;20256;-54
2022/09/23 04:19:31;;;;;;;;;;;14.80;80.60;;;;;;5099926;28;19908;-55
2022/09/23 04:21:57;;;;;;;;;;;14.80;81.10;;;;;;5099603;28;20355;-56
2022/09/23 04:24:23;;;;;;;;;;;14.90;83.00;;;;;;5099526;28;20268;-55
2022/09/23 04:26:52;;;;;;;;;;;14.90;81.40;;;;;;5100035;28;19904;-55
2022/09/23 04:29:18;;;;;;;;;;;14.90;81.10;;;;;;5099592;28;19912;-54
2022/09/23 04:31:44;;;;;;;;;;;14.90;80.90;;;;;;5099479;28;19908;-56
2022/09/23 04:34:10;;;;;;;;;;;14.90;81.80;;;;;;5099664;28;19915;-55
2022/09/23 04:36:35;;;;;;;;;;;14.90;80.50;;;;;;5099533;28;19931;-53
2022/09/23 04:39:02;;;;;;;;;;;14.90;84.60;;;;;;5092220;28;20295;-55
2022/09/23 04:41:27;;;;;;;;;;;14.90;82.40;;;;;;5081443;28;19915;-56
2022/09/23 04:43:53;;;;;;;;;;;14.90;83.40;;;;;;5091175;28;19955;-56
2022/09/23 04:46:18;;;;;;;;;;;14.90;81.70;;;;;;5089365;28;19936;-54
2022/09/23 04:48:44;;;;;;;;;;;14.90;84.50;;;;;;5087871;28;19919;-56
2022/09/23 04:51:14;;;;;;;;;;;14.90;85.90;;;;;;5088228;28;19908;-54
2022/09/23 04:53:41;;;;;;;;;;;14.90;83.50;;;;;;5089275;28;19965;-54
2022/09/23 04:56:11;;;;;;;;;;;14.90;85.00;;;;;;5088093;28;19909;-53
2022/09/23 04:58:37;;;;;;;;;;;14.90;85.50;;;;;;5087281;28;19999;-56
2022/09/23 05:01:18;;;;;;;;;;;14.80;87.00;;;;;;5089005;28;20699;-54
2022/09/23 05:03:44;;;;;;;;;;;14.90;86.70;;;;;;5087449;28;19971;-56
2022/09/23 05:06:14;;;;;;;;;;;14.90;83.40;;;;;;5087876;28;20379;-54
2022/09/23 05:08:40;;;;;;;;;;;14.90;83.10;;;;;;5088835;28;19919;-55
2022/09/23 05:11:06;;;;;;;;;;;15.00;85.40;;;;;;5087779;28;20007;-56
2022/09/23 05:13:32;;;;;;;;;;;15.00;87.40;;;;;;5087753;28;20335;-55
2022/09/23 05:15:58;;;;;;;;;;;15.00;86.00;;;;;;5095196;28;20342;-54
2022/09/23 05:18:24;;;;;;;;;;;15.00;83.40;;;;;;5098612;28;20363;-56
2022/09/23 05:20:54;;;;;;;;;;;15.00;86.60;;;;;;5097576;28;19962;-55
2022/09/23 05:23:20;;;;;;;;;;;15.00;83.30;;;;;;5098818;28;19908;-56
2022/09/23 05:25:47;;;;;;;;;;;15.00;84.60;;;;;;5098062;28;19909;-55
2022/09/23 05:28:18;;;;;;;;;;;15.00;85.70;;;;;;5098198;28;19991;-54
2022/09/23 05:30:44;;;;;;;;;;;15.00;84.90;;;;;;5098178;28;19912;-54
2022/09/23 05:33:09;;;;;;;;;;;15.00;84.70;;;;;;5098239;28;19913;-55
2022/09/23 05:35:35;;;;;;;;;;;15.00;83.30;;;;;;5098145;28;19930;-54
2022/09/23 05:38:01;;;;;;;;;;;15.00;85.90;;;;;;5098647;28;19908;-55
2022/09/23 05:40:26;;;;;;;;;;;15.00;82.80;;;;;;5098267;28;19909;-53
2022/09/23 05:42:52;;;;;;;;;;;15.00;82.60;;;;;;5098004;28;19995;-55
2022/09/23 05:45:17;;;;;;;;;;;15.00;82.60;;;;;;5098102;28;19908;-55
2022/09/23 05:47:43;;;;;;;;;;;15.00;84.90;;;;;;5098408;28;19924;-55
2022/09/23 05:50:09;;;;;;;;;;;14.90;83.30;;;;;;5097901;28;19909;-54
2022/09/23 05:52:35;;;;;;;;;;;15.00;84.90;;;;;;5097873;28;19915;-55
2022/09/23 05:55:01;;;;;;;;;;;15.00;82.90;;;;;;5098456;28;19909;-54
2022/09/23 05:57:27;;;;;;;;;;;14.90;82.90;;;;;;5098110;28;19908;-55
2022/09/23 05:59:52;;;;;;;;;;;14.90;82.60;;;;;;5098057;28;19908;-54
2022/09/23 06:02:18;;;;;;;;;;;14.90;82.60;;;;;;5098374;28;19915;-55
2022/09/23 06:04:44;;;;;;;;;;;14.90;82.50;;;;;;5097833;28;20005;-52
2022/09/23 06:07:09;;;;;;;;;;;14.90;82.20;;;;;;5098087;28;19924;-56
2022/09/23 06:09:35;;;;;;;;;;;14.80;82.40;;;;;;5098022;28;19908;-53
2022/09/23 06:12:01;;;;;;;;;;;14.80;83.40;;;;;;5098065;28;20440;-55
2022/09/23 06:14:27;;;;;;;;;;;14.80;86.10;;;;;;5098259;28;19909;-55
2022/09/23 06:16:53;;;;;;;;;;;14.80;84.80;;;;;;5098044;28;19909;-56
2022/09/23 06:19:18;;;;;;;;;;;14.90;86.30;;;;;;5097763;28;20363;-56
2022/09/23 06:21:44;;;;;;;;;;;14.90;85.00;;;;;;5097787;28;20353;-56
2022/09/23 06:24:10;;;;;;;;;;;14.90;83.40;;;;;;5097857;28;19912;-56
2022/09/23 06:26:37;;;;;;;;;;;14.90;84.10;;;;;;5097914;28;19915;-55
2022/09/23 06:29:03;;;;;;;;;;;14.90;83.80;;;;;;5079471;28;19916;-52
2022/09/23 06:31:29;;;;;;;;;;;14.90;82.70;;;;;;5097659;28;19908;-54
2022/09/23 06:33:54;;;;;;;;;;;14.90;83.40;;;;;;5097672;28;19914;-55
2022/09/23 06:36:20;;;;;;;;;;;14.90;85.20;;;;;;5098043;28;19908;-53
2022/09/23 06:38:48;;;;;;;;;;;14.90;83.60;;;;;;5097135;28;19988;-56
2022/09/23 06:41:15;;;;;;;;;;;14.90;83.50;;;;;;5096942;28;19912;-55
2022/09/23 06:43:40;;;;;;;;;;;14.90;86.50;;;;;;5097033;28;19915;-55
2022/09/23 06:46:06;;;;;;;;;;;14.90;86.20;;;;;;5097322;28;19909;-56
2022/09/23 06:48:35;;;;;;;;;;;14.90;83.70;;;;;;5097591;28;19912;-55
2022/09/23 06:51:02;;;;;;;;;;;14.90;83.40;;;;;;5097326;28;19943;-56
2022/09/23 06:53:31;;;;;;;;;;;14.90;83.40;;;;;;5097438;28;19908;-56
2022/09/23 06:56:01;;;;;;;;;;;14.90;83.70;;;;;;5078154;28;19915;-55
2022/09/23 06:58:27;;;;;;;;;;;14.90;83.80;;;;;;5097006;28;19946;-55
2022/09/23 07:00:54;;;;;;;;;;;14.90;85.00;;;;;;5097800;28;20327;-54
2022/09/23 07:03:19;;;;;;;;;;;14.90;84.60;;;;;;5100648;28;19912;-55
2022/09/23 07:05:45;;;;;;;;;;;15.00;85.00;;;;;;5100757;28;19920;-55
2022/09/23 07:08:10;;;;;;;;;;;15.00;85.90;;;;;;5100929;28;19933;-54
2022/09/23 07:10:36;;;;;;;;;;;15.00;84.20;;;;;;5100850;28;20288;-55
2022/09/23 07:13:05;;;;;;;;;;;15.00;86.10;;;;;;5100796;28;19915;-55
2022/09/23 07:15:32;;;;;;;;;;;15.00;87.20;;;;;;5100781;28;19995;-56
2022/09/23 07:17:57;;;;;;;;;;;15.00;85.40;;;;;;5100737;28;19963;-55
2022/09/23 07:20:23;;;;;;;;;;;15.00;84.60;;;;;;5101180;28;19955;-55
2022/09/23 07:22:51;;;;;;;;;;;15.00;87.80;;;;;;5100783;28;19967;-55
2022/09/23 07:25:18;;;;;;;;;;;15.00;88.70;;;;;;5100757;28;19908;-53
2022/09/23 07:27:46;;;;;;;;;;;15.00;85.60;;;;;;5100764;28;19966;-56
2022/09/23 07:30:13;;;;;;;;;;;15.10;87.10;;;;;;5100405;28;19912;-53
2022/09/23 07:32:39;;;;;;;;;;;15.10;88.10;;;;;;5100655;28;19908;-54
2022/09/23 07:35:05;;;;;;;;;;;15.00;86.70;;;;;;5100782;28;20275;-55
2022/09/23 07:37:31;;;;;;;;;;;15.00;88.10;;;;;;5100339;28;20398;-55
2022/09/23 07:39:56;;;;;;;;;;;15.10;85.70;;;;;;5100832;28;19961;-56
2022/09/23 07:42:22;;;;;;;;;;;15.10;86.60;;;;;;5100549;28;19991;-55
2022/09/23 07:44:48;;;;;;;;;;;15.10;85.00;;;;;;5100015;28;19908;-56
2022/09/23 07:47:15;;;;;;;;;;;15.10;85.60;;;;;;5100749;28;19918;-55
2022/09/23 07:49:41;;;;;;;;;;;15.20;84.80;;;;;;5100246;28;19914;-56
2022/09/23 07:52:07;;;;;;;;;;;15.20;88.90;;;;;;5100416;28;19956;-56
2022/09/23 07:54:32;;;;;;;;;;;15.20;89.90;;;;;;5100165;28;20597;-54
2022/09/23 07:56:58;;;;;;;;;;;15.20;87.60;;;;;;5100073;28;19909;-56
2022/09/23 07:59:26;;;;;;;;;;;15.30;87.50;;;;;;5099987;28;19912;-57
2022/09/23 08:01:52;;;;;;;;;;;15.30;88.70;;;;;;5100018;28;19916;-56
2022/09/23 08:04:22;;;;;;;;;;;15.40;87.90;;;;;;5099825;28;19920;-56
2022/09/23 08:06:49;;;;;;;;;;;15.50;85.70;;;;;;5100017;28;19908;-56
2022/09/23 08:09:16;;;;;;;;;;;15.50;85.80;;;;;;5081610;28;19912;-56
2022/09/23 08:11:41;;;;;;;;;;;15.60;86.10;;;;;;5099729;28;20367;-57
2022/09/23 08:14:08;;;;;;;;;;;15.60;87.40;;;;;;5099638;28;19915;-57
2022/09/23 08:16:34;;;;;;;;;;;15.70;87.60;;;;;;5099838;28;20436;-57
2022/09/23 08:19:00;;;;;;;;;;;15.70;86.10;;;;;;5099778;28;20263;-56
2022/09/23 08:21:26;;;;;;;;;;;15.80;86.80;;;;;;5099414;28;19930;-57
2022/09/23 08:23:51;;;;;;;;;;;15.80;87.70;;;;;;5099697;28;19912;-57
2022/09/23 08:26:17;;;;;;;;;;;15.90;88.40;;;;;;5099537;28;19915;-56
2022/09/23 08:28:44;;;;;;;;;;;15.90;88.70;;;;;;5099399;28;19918;-55
2022/09/23 08:31:11;;;;;;;;;;;15.90;87.10;;;;;;5099673;28;19908;-53
2022/09/23 08:33:36;;;;;;;;;;;16.00;87.90;;;;;;5098960;28;19957;-56
2022/09/23 08:36:02;;;;;;;;;;;16.00;88.10;;;;;;5099686;28;20286;-56
2022/09/23 08:38:28;;;;;;;;;;;16.00;89.50;;;;;;5099294;28;19908;-57
2022/09/23 08:41:04;;;;;;;;;;;15.90;89.20;;;;;;5099614;28;19912;-57
2022/09/23 08:43:31;;;;;;;;;;;16.00;88.00;;;;;;5099157;28;19908;-54
2022/09/23 08:46:01;;;;;;;;;;;16.10;87.70;;;;;;5099378;28;19915;-57
2022/09/23 08:48:27;;;;;;;;;;;16.20;88.00;;;;;;5098224;28;20325;-54
2022/09/23 08:50:57;;;;;;;;;;;16.30;88.50;;;;;;5098963;28;20003;-57
2022/09/23 08:53:32;;;;;;;;;;;16.50;88.30;;;;;;5081983;28;19946;-55
2022/09/23 08:55:58;;;;;;;;;;;16.60;89.00;;;;;;5078638;28;19909;-57
2022/09/23 08:58:29;;;;;;;;;;;16.60;89.90;;;;;;5078936;28;19912;-56
2022/09/23 09:01:03;;;;;;;;;;;16.80;89.10;;;;;;5078775;28;20446;-56
2022/09/23 09:03:34;;;;;;;;;;;16.90;89.20;;;;;;5078811;28;19913;-56
2022/09/23 09:06:00;;;;;;;;;;;17.00;88.90;;;;;;5078325;28;19928;-55
2022/09/23 09:08:30;;;;;;;;;;;17.00;87.50;;;;;;5078757;28;20015;-57
2022/09/23 09:10:57;;;;;;;;;;;16.80;87.20;;;;;;5077247;28;20206;-57
2022/09/23 09:13:31;;;;;;;;;;;16.80;87.40;;;;;;5078027;28;19940;-56
2022/09/23 09:16:18;;;;;;;;;;;17.00;87.50;;;;;;5076629;28;20347;-57
2022/09/23 09:18:52;;;;;;;;;;;17.30;87.80;;;;;;5078187;28;19940;-55
2022/09/23 09:21:23;;;;;;;;;;;17.40;86.00;;;;;;5078217;28;19908;-56
2022/09/23 09:23:56;;;;;;;;;;;17.60;85.80;;;;;;5078185;28;20359;-56
2022/09/23 09:26:25;;;;;;;;;;;17.70;85.30;;;;;;5077972;28;19969;-55
2022/09/23 09:28:53;;;;;;;;;;;17.80;84.00;;;;;;5078251;28;19912;-57
2022/09/23 09:31:37;;;;;;;;;;;17.80;84.60;;;;;;5078121;28;19909;-56
2022/09/23 09:34:14;;;;;;;;;;;17.90;83.10;;;;;;5078287;28;19916;-55
2022/09/23 09:36:46;;;;;;;;;;;18.00;84.60;;;;;;5077979;28;19908;-54
2022/09/23 09:39:12;;;;;;;;;;;18.10;81.80;;;;;;5078296;28;19912;-56
2022/09/23 09:41:40;;;;;;;;;;;18.20;83.50;;;;;;5077238;28;19909;-57
2022/09/23 09:44:16;;;;;;;;;;;18.40;82.70;;;;;;5095426;28;19914;-56
2022/09/23 09:47:01;;;;;;;;;;;18.60;83.40;;;;;;5098054;28;20352;-56
2022/09/23 09:49:33;;;;;;;;;;;18.70;82.20;;;;;;5080128;28;19916;-56
2022/09/23 09:52:18;;;;;;;;;;;18.60;83.20;;;;;;5097696;28;19908;-57
2022/09/23 09:54:44;;;;;;;;;;;18.60;80.90;;;;;;5097690;28;20028;-55
2022/09/23 09:57:30;;;;;;;;;;;18.60;81.60;;;;;;5097529;28;19926;-56
2022/09/23 09:59:56;;;;;;;;;;;18.40;79.20;;;;;;5096738;28;19914;-56
2022/09/23 10:02:35;;;;;;;;;;;18.60;80.50;;;;;;5096382;28;19916;-55
2022/09/23 10:05:05;;;;;;;;;;;18.80;80.70;;;;;;5096507;28;19931;-57
2022/09/23 10:07:32;;;;;;;;;;;19.00;80.60;;;;;;5097618;28;19970;-56
2022/09/23 10:10:13;;;;;;;;;;;19.10;78.00;;;;;;5097872;28;19995;-55
2022/09/23 10:12:42;;;;;;;;;;;19.10;78.10;;;;;;5097757;28;19925;-57
2022/09/23 10:15:24;;;;;;;;;;;19.10;76.10;;;;;;5097916;28;19908;-57
2022/09/23 10:17:50;;;;;;;;;;;19.10;74.10;;;;;;5097864;28;19908;-56
2022/09/23 10:20:16;;;;;;;;;;;19.10;74.40;;;;;;5097765;28;20279;-55
2022/09/23 10:22:42;;;;;;;;;;;18.70;73.40;;;;;;5097539;28;19908;-56
2022/09/23 10:25:23;;;;;;;;;;;18.70;72.80;;;;;;5097777;28;19957;-55
2022/09/23 10:27:49;;;;;;;;;;;18.70;73.50;;;;;;5097754;28;19912;-57
2022/09/23 10:30:25;;;;;;;;;;;18.80;75.80;;;;;;5097508;28;20361;-56
2022/09/23 10:32:53;;;;;;;;;;;18.80;75.10;;;;;;5097598;28;19908;-56
2022/09/23 10:35:21;;;;;;;;;;;18.50;73.40;;;;;;5097665;28;19970;-57
2022/09/23 10:37:48;;;;;;;;;;;18.40;73.20;;;;;;5101309;28;20291;-57
2022/09/23 10:49:13;;;;;;;;;;;18.50;76.40;;;;;;5101852;28;19965;-57
2022/09/23 10:51:52;;;;;;;;;;;18.50;76.10;;;;;;5045713;28;19924;-57
2022/09/23 10:54:28;;;;;;;;;;;18.50;76.70;;;;;;5101445;28;19912;-55
2022/09/23 10:56:57;;;;;;;;;;;18.40;77.40;;;;;;5101171;28;19919;-56
2022/09/23 10:59:34;;;;;;;;;;;18.40;77.10;;;;;;5101204;28;19908;-57
2022/09/23 11:02:05;;;;;;;;;;;18.40;78.10;;;;;;5101578;28;19915;-57
2022/09/23 11:04:31;;;;;;;;;;;18.50;78.80;;;;;;5101186;28;19977;-56
2022/09/23 11:07:06;;;;;;;;;;;18.40;78.90;;;;;;5101026;28;20355;-56
2022/09/23 11:09:49;;;;;;;;;;;18.50;78.70;;;;;;5082816;28;20374;-55
2022/09/23 11:12:34;;;;;;;;;;;18.50;79.00;;;;;;5101482;28;19909;-57
2022/09/23 11:15:38;;;;;;;;;;;18.60;79.00;;;;;;5100870;28;19950;-57
2022/09/23 11:18:12;;;;;;;;;;;18.70;78.50;;;;;;4999390;28;19921;-56
2022/09/23 11:20:40;;;;;;;;;;;18.60;78.20;;;;;;4982734;28;19945;-56
2022/09/23 11:23:25;;;;;;;;;;;18.50;79.30;;;;;;5054092;28;19912;-57
2022/09/23 11:26:07;;;;;;;;;;;18.60;79.40;;;;;;5100998;28;19915;-55
2022/09/23 11:28:44;;;;;;;;;;;18.60;79.90;;;;;;5100726;28;19918;-54
2022/09/23 11:31:29;;;;;;;;;;;18.60;79.30;;;;;;5100513;28;19912;-57
2022/09/23 11:33:55;;;;;;;;;;;18.50;79.80;;;;;;5100179;28;20019;-56
2022/09/23 11:36:25;;;;;;;;;;;18.40;80.20;;;;;;5100733;28;19940;-55
2022/09/23 11:38:52;;;;;;;;;;;18.40;80.10;;;;;;5100447;28;20013;-56
2022/09/23 11:41:37;;;;;;;;;;;18.40;80.20;;;;;;5100862;28;19908;-57
2022/09/23 11:44:07;;;;;;;;;;;18.70;79.80;;;;;;5100336;28;19957;-57
2022/09/23 11:46:48;;;;;;;;;;;18.80;79.80;;;;;;5100032;28;19991;-55
2022/09/23 11:49:15;;;;;;;;;;;18.80;79.10;;;;;;5100274;28;20014;-56
2022/09/23 11:51:44;;;;;;;;;;;19.00;78.70;;;;;;5100639;28;19955;-56
2022/09/23 11:54:20;;;;;;;;;;;19.30;79.70;;;;;;5100397;28;19959;-57
2022/09/23 11:56:49;;;;;;;;;;;19.50;78.50;;;;;;5100210;28;20381;-54
2022/09/23 11:59:23;;;;;;;;;;;19.80;77.50;;;;;;5099992;28;19912;-54
2022/09/23 12:01:51;;;;;;;;;;;20.00;78.80;;;;;;5100051;28;20046;-55
2022/09/23 12:04:30;;;;;;;;;;;20.10;75.00;;;;;;5099664;28;19920;-57
2022/09/23 12:07:03;;;;;;;;;;;20.40;74.30;;;;;;5100361;28;20061;-57
2022/09/23 12:09:36;;;;;;;;;;;20.90;77.90;;;;;;5099957;28;19912;-56
2022/09/23 12:12:04;;;;;;;;;;;21.10;73.40;;;;;;5099517;28;19908;-55
2022/09/23 12:14:37;;;;;;;;;;;21.10;73.40;;;;;;5100028;28;19912;-57
2022/09/23 12:17:21;;;;;;;;;;;21.10;74.10;;;;;;5099432;28;19908;-56
2022/09/23 12:20:02;;;;;;;;;;;21.00;73.00;;;;;;5099850;28;19915;-55
2022/09/23 12:22:38;;;;;;;;;;;21.30;75.80;;;;;;5099749;28;19939;-57
2022/09/23 12:25:22;;;;;;;;;;;21.10;71.20;;;;;;5099245;28;19954;-57
2022/09/23 12:27:50;;;;;;;;;;;20.80;71.50;;;;;;5099239;28;19983;-56
2022/09/23 12:30:24;;;;;;;;;;;20.50;71.80;;;;;;5099269;28;20007;-57
2022/09/23 12:32:50;;;;;;;;;;;20.20;72.80;;;;;;5099417;28;19957;-55
2022/09/23 12:35:24;;;;;;;;;;;20.00;73.40;;;;;;5099179;28;19908;-53
2022/09/23 12:37:50;;;;;;;;;;;20.10;73.90;;;;;;5099151;28;19908;-56
2022/09/23 12:40:20;;;;;;;;;;;20.00;72.50;;;;;;5099505;28;19947;-57
2022/09/23 12:42:46;;;;;;;;;;;19.90;73.50;;;;;;5099089;28;19908;-56
2022/09/23 12:45:32;;;;;;;;;;;19.60;73.70;;;;;;5098991;28;19966;-57
2022/09/23 12:47:58;;;;;;;;;;;19.30;75.00;;;;;;5098687;28;19933;-56
2022/09/23 12:50:43;;;;;;;;;;;19.20;75.90;;;;;;5099078;28;19920;-57
2022/09/23 12:53:27;;;;;;;;;;;19.20;75.70;;;;;;5099288;28;19912;-57
2022/09/23 12:55:53;;;;;;;;;;;19.40;75.70;;;;;;5099271;28;20279;-56
2022/09/23 12:58:57;;;;;;;;;;;19.30;75.70;;;;;;5098235;28;19915;-57
2022/09/23 13:01:24;;;;;;;;;;;19.40;75.80;;;;;;4997129;28;19909;-57
2022/09/23 13:06:52;;;;;;;;;;;19.30;76.60;;;;;;5057587;28;20014;-54
2022/09/23 13:09:40;;;;;;;;;;;19.40;76.40;;;;;;5098840;28;19919;-57
2022/09/23 13:12:11;;;;;;;;;;;19.40;75.90;;;;;;5084975;28;19908;-57
2022/09/23 13:14:39;;;;;;;;;;;19.40;76.10;;;;;;5098678;28;19923;-56
2022/09/23 13:17:05;;;;;;;;;;;19.40;76.20;;;;;;5098489;28;19909;-57
2022/09/23 13:19:30;;;;;;;;;;;19.20;76.20;;;;;;5099232;28;19919;-57
2022/09/23 13:21:56;;;;;;;;;;;19.10;76.50;;;;;;5098753;28;19931;-56
2022/09/23 13:24:22;;;;;;;;;;;18.90;77.40;;;;;;5098746;28;19915;-57
2022/09/23 13:26:49;;;;;;;;;;;18.70;78.10;;;;;;5098869;28;19908;-57
2022/09/23 13:29:38;;;;;;;;;;;18.70;78.80;;;;;;5098346;28;20006;-57
2022/09/23 13:32:05;;;;;;;;;;;18.60;78.40;;;;;;5051584;28;19912;-56
2022/09/23 13:34:33;;;;;;;;;;;18.70;77.40;;;;;;5098934;28;19912;-56
2022/09/23 13:37:10;;;;;;;;;;;18.70;77.00;;;;;;5098065;28;19951;-56
2022/09/23 13:39:36;;;;;;;;;;;18.70;76.70;;;;;;5098462;28;19908;-57
2022/09/23 13:42:03;;;;;;;;;;;18.70;77.30;;;;;;5098561;28;19957;-57
2022/09/23 13:44:29;;;;;;;;;;;18.50;78.10;;;;;;5098370;28;19931;-57
2022/09/23 13:46:59;;;;;;;;;;;18.60;77.40;;;;;;5098368;28;19908;-57
2022/09/23 13:49:27;;;;;;;;;;;18.60;77.10;;;;;;5098015;28;20334;-57
2022/09/23 13:51:54;;;;;;;;;;;18.60;78.80;;;;;;5098269;28;19999;-57
2022/09/23 13:54:27;;;;;;;;;;;18.60;78.30;;;;;;5098128;28;19908;-57
2022/09/23 13:56:54;;;;;;;;;;;18.50;78.90;;;;;;5097936;28;19916;-57
2022/09/23 13:59:23;;;;;;;;;;;18.50;78.20;;;;;;5098477;28;20008;-56
2022/09/23 14:01:49;;;;;;;;;;;18.50;79.70;;;;;;5097908;28;20406;-58
2022/09/23 14:04:24;;;;;;;;;;;18.60;79.60;;;;;;5098072;28;19920;-57
2022/09/23 14:06:50;;;;;;;;;;;18.50;80.30;;;;;;5098143;28;19941;-57
2022/09/23 14:09:17;;;;;;;;;;;18.50;80.70;;;;;;5097633;28;19928;-57
2022/09/23 14:11:42;;;;;;;;;;;18.40;82.40;;;;;;5103762;28;19908;-57
2022/09/23 14:14:11;;;;;;;;;;;18.40;82.90;;;;;;5104685;28;19908;-56
2022/09/23 14:16:38;;;;;;;;;;;18.40;80.80;;;;;;5104493;28;19961;-57
2022/09/23 14:19:04;;;;;;;;;;;18.30;81.70;;;;;;5086215;28;20379;-54
2022/09/23 14:21:34;;;;;;;;;;;18.20;82.60;;;;;;5104516;28;19993;-56
2022/09/23 14:24:09;;;;;;;;;;;18.20;81.30;;;;;;5103829;28;20379;-55
2022/09/23 14:26:35;;;;;;;;;;;18.20;82.70;;;;;;5085456;28;19914;-56
2022/09/23 14:29:01;;;;;;;;;;;18.20;82.40;;;;;;5104562;28;19912;-57
2022/09/23 14:31:26;;;;;;;;;;;18.20;82.90;;;;;;5104430;28;20457;-57
2022/09/23 14:33:53;;;;;;;;;;;18.20;80.50;;;;;;5104468;28;19912;-56
2022/09/23 14:39:06;;;;;;;;;;;17.90;85.60;;;;;;5104511;28;19919;-58
2022/09/23 14:41:37;;;;;;;;;;;17.90;83.20;;;;;;5101443;28;19919;-55
2022/09/23 14:44:03;;;;;;;;;;;17.90;83.40;;;;;;5095152;28;19908;-57